Time;durP1;ratioP1;P1;durP2;ratioP2;P2;SDS_P1;SDS_P2;PMS_P1;PMS_P2;Temp;Humidity;BMP_temperature;BMP_pressure;BME280_temperature;BME280_humidity;BME280_pressure;Samples;Min_cycle;Max_cycle;Signal;HPM_P1;HPM_P2
2022/07/18 00:02:04;;;;;;;1.27;0.40;;;15.10;89.40;;;;;;5000451;28;20112;-69
2022/07/18 00:04:31;;;;;;;2.05;0.50;;;15.20;87.90;;;;;;5012351;28;20091;-74
2022/07/18 00:06:59;;;;;;;4.68;0.75;;;15.10;85.40;;;;;;5011715;28;20108;-68
2022/07/18 00:09:26;;;;;;;5.15;0.95;;;15.10;84.50;;;;;;5014211;28;20093;-74
2022/07/18 00:11:53;;;;;;;1.02;0.50;;;14.80;84.20;;;;;;5020967;28;20460;-70
2022/07/18 00:14:21;;;;;;;2.38;0.47;;;14.50;84.10;;;;;;5014938;28;20025;-74
2022/07/18 00:16:49;;;;;;;2.00;0.60;;;14.20;84.00;;;;;;5015461;28;20022;-70
2022/07/18 00:19:17;;;;;;;0.68;0.50;;;14.00;83.50;;;;;;5013449;28;20113;-70
2022/07/18 00:21:44;;;;;;;6.50;0.68;;;14.10;82.70;;;;;;5011238;28;20022;-69
2022/07/18 00:24:12;;;;;;;2.83;0.80;;;14.30;80.70;;;;;;4996798;28;20018;-69
2022/07/18 00:26:39;;;;;;;1.73;0.90;;;14.50;82.00;;;;;;5017037;28;20025;-69
2022/07/18 00:29:06;;;;;;;2.40;0.38;;;14.60;80.70;;;;;;5009012;28;20048;-71
2022/07/18 00:31:35;;;;;;;3.92;0.57;;;14.50;79.40;;;;;;5015016;28;20021;-73
2022/07/18 00:34:03;;;;;;;3.85;0.47;;;14.50;80.70;;;;;;5015108;28;20542;-70
2022/07/18 00:36:31;;;;;;;2.10;0.80;;;14.60;80.00;;;;;;5014344;28;20025;-70
2022/07/18 00:38:59;;;;;;;4.07;0.40;;;14.70;79.80;;;;;;5009639;28;20023;-70
2022/07/18 00:41:26;;;;;;;4.57;0.68;;;14.90;78.40;;;;;;5008200;28;20496;-75
2022/07/18 00:43:54;;;;;;;3.42;0.50;;;14.90;78.90;;;;;;5006590;28;20499;-69
2022/07/18 00:46:25;;;;;;;2.10;0.57;;;14.90;78.40;;;;;;5008472;28;20033;-75
2022/07/18 00:48:53;;;;;;;0.70;0.35;;;15.10;80.30;;;;;;5009133;28;20056;-72
2022/07/18 00:51:21;;;;;;;3.40;0.60;;;15.10;76.70;;;;;;5010236;28;20057;-70
2022/07/18 00:53:49;;;;;;;1.23;0.40;;;14.90;76.70;;;;;;5015896;28;20072;-71
2022/07/18 00:56:20;;;;;;;1.48;0.68;;;15.00;75.80;;;;;;5014322;28;20022;-71
2022/07/18 00:58:48;;;;;;;1.60;0.50;;;15.10;77.40;;;;;;5013517;28;20373;-72
2022/07/18 01:04:00;;;;;;;2.00;0.57;;;15.10;75.60;;;;;;5017933;28;20107;-71
2022/07/18 01:06:28;;;;;;;3.03;0.75;;;15.20;75.10;;;;;;5014224;28;20058;-74
2022/07/18 01:08:57;;;;;;;2.85;0.50;;;15.30;74.80;;;;;;5013024;28;20018;-69
2022/07/18 01:11:24;;;;;;;1.90;0.50;;;15.40;75.00;;;;;;5012035;28;20010;-71
2022/07/18 01:13:51;;;;;;;2.72;0.40;;;15.60;74.80;;;;;;5016817;28;20052;-69
2022/07/18 01:16:18;;;;;;;2.20;0.47;;;15.70;75.10;;;;;;5014670;28;20025;-68
2022/07/18 01:18:48;;;;;;;4.97;0.70;;;15.70;73.30;;;;;;5010336;28;20125;-70
2022/07/18 01:21:16;;;;;;;1.70;0.40;;;15.70;72.90;;;;;;5011790;28;20083;-70
2022/07/18 01:23:43;;;;;;;6.35;0.65;;;15.60;74.10;;;;;;5017437;28;20021;-69
2022/07/18 01:26:12;;;;;;;1.83;0.68;;;15.60;73.90;;;;;;4996844;28;20076;-74
2022/07/18 01:28:39;;;;;;;4.88;0.90;;;15.50;73.60;;;;;;5007077;28;20149;-71
2022/07/18 01:31:07;;;;;;;6.70;2.15;;;15.50;73.60;;;;;;5009805;28;20029;-69
2022/07/18 01:33:35;;;;;;;3.60;1.00;;;15.50;73.60;;;;;;5018731;28;20073;-70
2022/07/18 01:36:03;;;;;;;5.70;1.80;;;15.50;73.40;;;;;;5013157;28;20091;-70
2022/07/18 01:38:31;;;;;;;7.78;1.08;;;15.50;74.10;;;;;;5012673;28;20396;-74
2022/07/18 01:40:59;;;;;;;1.85;0.80;;;15.80;74.90;;;;;;5015523;23;20108;-70
2022/07/18 01:43:27;;;;;;;2.60;0.68;;;16.20;72.30;;;;;;5009714;28;20030;-70
2022/07/18 01:45:55;;;;;;;1.33;0.63;;;16.20;72.70;;;;;;5003530;28;20053;-72
2022/07/18 01:48:23;;;;;;;2.40;0.47;;;16.20;73.50;;;;;;5009841;28;20033;-70
2022/07/18 01:50:51;;;;;;;0.40;0.20;;;16.40;72.70;;;;;;5001337;28;20033;-70
2022/07/18 01:53:18;;;;;;;1.35;0.50;;;16.50;73.20;;;;;;5004690;28;20014;-69
2022/07/18 01:55:45;;;;;;;4.90;0.63;;;16.60;71.70;;;;;;5000204;28;20108;-70
2022/07/18 01:58:12;;;;;;;2.17;0.40;;;16.90;71.50;;;;;;4986832;28;20037;-74
2022/07/18 02:00:39;;;;;;;1.50;0.50;;;17.10;72.00;;;;;;5003566;28;20772;-71
2022/07/18 02:03:06;;;;;;;5.13;0.40;;;16.80;72.00;;;;;;5002245;28;20459;-70
2022/07/18 02:05:34;;;;;;;2.65;0.65;;;16.60;73.70;;;;;;5013969;28;20079;-70
2022/07/18 02:08:01;;;;;;;4.30;0.70;;;16.50;73.70;;;;;;5001570;28;20323;-74
2022/07/18 02:10:28;;;;;;;3.25;0.50;;;16.00;74.70;;;;;;4998473;28;20108;-69
2022/07/18 02:12:55;;;;;;;2.88;0.30;;;15.80;76.10;;;;;;5003930;28;20101;-70
2022/07/18 02:15:23;;;;;;;1.40;0.60;;;15.80;76.80;;;;;;5000308;28;20029;-75
2022/07/18 02:17:51;;;;;;;2.22;0.40;;;15.90;77.30;;;;;;5009722;28;20026;-75
2022/07/18 02:20:18;;;;;;;4.55;0.70;;;15.80;77.20;;;;;;5005523;28;20420;-70
2022/07/18 02:22:45;;;;;;;6.47;0.40;;;15.80;75.40;;;;;;5000247;28;20021;-74
2022/07/18 02:25:13;;;;;;;4.82;0.52;;;15.70;75.00;;;;;;4999829;28;20037;-71
2022/07/18 02:27:41;;;;;;;0.70;0.47;;;15.50;73.80;;;;;;5013566;28;20538;-74
2022/07/18 02:30:09;;;;;;;5.32;0.85;;;15.50;74.30;;;;;;5001055;28;20029;-74
2022/07/18 02:32:37;;;;;;;6.38;1.02;;;15.30;75.30;;;;;;5007868;28;20049;-73
2022/07/18 02:35:07;;;;;;;2.00;0.30;;;15.50;75.30;;;;;;4999041;28;20121;-75
2022/07/18 02:37:34;;;;;;;1.80;0.32;;;15.60;76.10;;;;;;5006602;28;20065;-72
2022/07/18 02:40:01;;;;;;;4.85;0.52;;;15.60;76.30;;;;;;5003726;28;20058;-73
2022/07/18 02:42:28;;;;;;;0.52;0.30;;;15.50;77.20;;;;;;4650638;28;9999977;-73
2022/07/18 02:44:55;;;;;;;2.58;0.35;;;15.60;76.00;;;;;;4996185;28;20442;-74
2022/07/18 02:47:23;;;;;;;1.10;0.30;;;15.90;76.10;;;;;;5010002;28;20708;-69
2022/07/18 02:49:50;;;;;;;1.63;0.50;;;15.90;75.90;;;;;;4999589;28;20057;-75
2022/07/18 02:52:17;;;;;;;3.60;0.60;;;16.30;76.80;;;;;;4996816;28;20049;-70
2022/07/18 02:54:44;;;;;;;2.83;0.55;;;16.40;75.50;;;;;;5001158;28;20030;-74
2022/07/18 02:57:11;;;;;;;0.80;0.40;;;16.50;75.90;;;;;;4997872;28;20029;-70
2022/07/18 02:59:38;;;;;;;1.52;0.40;;;16.40;75.10;;;;;;5002280;28;20030;-74
2022/07/18 03:02:05;;;;;;;7.35;0.93;;;16.50;75.20;;;;;;4997881;28;20054;-70
2022/07/18 03:04:33;;;;;;;2.22;0.40;;;16.60;74.20;;;;;;5001659;28;20029;-74
2022/07/18 03:07:00;;;;;;;0.70;0.30;;;16.50;73.60;;;;;;4974825;28;20049;-70
2022/07/18 03:09:27;;;;;;;2.70;0.40;;;16.30;73.80;;;;;;5000986;28;20018;-70
2022/07/18 03:11:56;;;;;;;5.55;0.70;;;16.20;74.00;;;;;;5003910;28;20036;-75
2022/07/18 03:14:24;;;;;;;1.38;0.28;;;16.30;74.70;;;;;;5000587;28;20029;-69
2022/07/18 03:16:51;;;;;;;0.95;0.40;;;16.10;74.30;;;;;;4979487;28;20045;-68
2022/07/18 03:19:18;;;;;;;0.85;0.20;;;16.20;73.40;;;;;;4987401;28;20030;-69
2022/07/18 03:21:46;;;;;;;1.45;0.17;;;15.90;73.40;;;;;;4977432;28;20031;-71
2022/07/18 03:24:16;;;;;;;0.40;0.20;;;15.70;75.00;;;;;;4974293;28;20579;-68
2022/07/18 03:26:44;;;;;;;2.90;0.40;;;15.90;74.50;;;;;;4979654;28;20041;-71
2022/07/18 03:29:12;;;;;;;2.95;0.60;;;15.70;75.10;;;;;;4983985;28;20047;-66
2022/07/18 03:31:39;;;;;;;6.53;0.90;;;15.80;73.70;;;;;;4977037;28;20066;-70
2022/07/18 03:34:07;;;;;;;2.67;0.98;;;15.70;73.40;;;;;;4980102;28;20030;-69
2022/07/18 03:36:34;;;;;;;2.38;0.60;;;15.60;74.70;;;;;;4979970;28;20302;-69
2022/07/18 03:39:02;;;;;;;6.57;1.02;;;15.60;71.10;;;;;;4975805;28;20038;-69
2022/07/18 03:41:29;;;;;;;5.43;1.13;;;15.40;71.00;;;;;;4976367;28;20037;-70
2022/07/18 03:43:56;;;;;;;6.68;2.15;;;15.50;70.50;;;;;;4982080;28;20384;-69
2022/07/18 03:46:23;;;;;;;5.45;1.17;;;15.50;70.90;;;;;;4973368;28;20468;-68
2022/07/18 03:48:50;;;;;;;2.78;0.55;;;15.60;71.40;;;;;;4980958;28;20085;-72
2022/07/18 03:51:17;;;;;;;4.95;0.73;;;15.70;72.10;;;;;;4982173;28;20526;-70
2022/07/18 03:53:45;;;;;;;4.43;0.70;;;15.80;71.40;;;;;;4973317;28;20045;-68
2022/07/18 03:56:12;;;;;;;2.13;0.60;;;15.80;72.40;;;;;;4977699;28;20614;-67
2022/07/18 03:58:39;;;;;;;1.42;0.60;;;15.90;72.40;;;;;;4980573;28;20057;-70
2022/07/18 04:01:06;;;;;;;2.50;0.88;;;15.80;72.60;;;;;;4998075;28;20404;-70
2022/07/18 04:03:33;;;;;;;1.17;0.40;;;16.00;72.80;;;;;;5002154;28;20029;-69
2022/07/18 04:06:00;;;;;;;3.65;0.90;;;16.20;71.20;;;;;;5009614;28;20113;-69
2022/07/18 04:08:27;;;;;;;1.23;0.50;;;16.50;71.30;;;;;;5011158;28;20030;-67
2022/07/18 04:10:54;;;;;;;3.70;0.80;;;16.50;70.30;;;;;;5004160;28;20108;-68
2022/07/18 04:13:22;;;;;;;3.38;0.95;;;16.40;69.70;;;;;;5004898;28;20132;-69
2022/07/18 04:15:49;;;;;;;7.05;1.20;;;16.10;68.70;;;;;;5016318;28;20072;-70
2022/07/18 04:18:16;;;;;;;5.20;1.00;;;15.60;71.10;;;;;;5004435;28;20029;-69
2022/07/18 04:20:43;;;;;;;4.07;1.70;;;15.60;70.70;;;;;;5009801;28;20030;-68
2022/07/18 04:23:11;;;;;;;3.33;0.73;;;15.40;72.00;;;;;;5001858;28;20088;-68
2022/07/18 04:25:40;;;;;;;2.28;1.35;;;15.30;72.60;;;;;;5010024;28;20030;-64
2022/07/18 04:28:09;;;;;;;6.63;0.70;;;15.20;73.50;;;;;;5009805;28;20025;-68
2022/07/18 04:30:38;;;;;;;2.00;0.82;;;15.40;73.30;;;;;;5008886;28;20462;-68
2022/07/18 04:33:08;;;;;;;1.95;0.80;;;15.50;72.10;;;;;;4996391;28;20113;-66
2022/07/18 04:35:39;;;;;;;1.63;0.35;;;15.50;71.00;;;;;;4999411;28;20438;-67
2022/07/18 04:38:08;;;;;;;4.00;1.65;;;15.30;69.30;;;;;;4997286;28;20029;-66
2022/07/18 04:40:36;;;;;;;6.68;0.82;;;15.30;69.60;;;;;;4999769;28;21098;-70
2022/07/18 04:43:04;;;;;;;1.70;0.50;;;15.30;69.70;;;;;;5000470;28;20029;-69
2022/07/18 04:45:32;;;;;;;5.22;0.90;;;15.30;69.00;;;;;;5000383;28;20034;-70
2022/07/18 04:48:00;;;;;;;1.15;0.68;;;15.30;70.10;;;;;;4997728;28;20022;-69
2022/07/18 04:50:29;;;;;;;1.98;0.40;;;15.30;70.20;;;;;;4996895;28;20105;-70
2022/07/18 04:52:57;;;;;;;5.13;0.55;;;15.30;69.10;;;;;;4995590;28;20030;-68
2022/07/18 04:55:26;;;;;;;3.25;0.70;;;15.50;70.80;;;;;;4996288;28;20504;-69
2022/07/18 04:57:54;;;;;;;4.97;0.90;;;15.50;70.40;;;;;;4996035;28;20060;-71
2022/07/18 05:00:24;;;;;;;2.13;0.50;;;15.60;71.30;;;;;;4996079;28;20058;-70
2022/07/18 05:02:54;;;;;;;1.83;0.50;;;15.60;70.80;;;;;;4994720;28;20557;-71
2022/07/18 05:05:23;;;;;;;2.88;0.80;;;15.50;70.90;;;;;;4993963;28;20656;-68
2022/07/18 05:07:50;;;;;;;1.88;0.50;;;15.60;72.90;;;;;;4998512;28;20328;-68
2022/07/18 05:10:20;;;;;;;1.30;0.45;;;15.60;72.00;;;;;;4999291;28;20091;-71
2022/07/18 05:12:50;;;;;;;1.77;0.47;;;15.20;71.60;;;;;;4999681;28;20030;-70
2022/07/18 05:15:19;;;;;;;1.75;0.60;;;15.10;70.10;;;;;;4997761;28;20048;-68
2022/07/18 05:17:47;;;;;;;0.95;0.43;;;15.40;72.20;;;;;;4994030;28;20023;-68
2022/07/18 05:20:17;;;;;;;5.88;1.45;;;15.70;70.30;;;;;;4998167;28;20022;-70
2022/07/18 05:22:45;;;;;;;8.30;0.95;;;15.80;69.10;;;;;;4996731;28;20666;-71
2022/07/18 05:25:14;;;;;;;5.95;0.90;;;15.70;68.70;;;;;;4997797;28;20489;-69
2022/07/18 05:27:42;;;;;;;5.78;0.70;;;15.60;68.60;;;;;;4994728;28;20034;-66
2022/07/18 05:30:12;;;;;;;2.17;0.80;;;15.60;68.40;;;;;;4996663;28;20034;-66
2022/07/18 05:32:41;;;;;;;3.03;0.50;;;15.60;67.60;;;;;;4993334;28;20036;-70
2022/07/18 05:35:09;;;;;;;5.53;0.63;;;15.50;67.30;;;;;;4995831;28;20035;-67
2022/07/18 05:37:37;;;;;;;11.23;2.38;;;15.80;68.30;;;;;;4995906;28;20038;-70
2022/07/18 05:40:07;;;;;;;12.65;1.40;;;15.90;68.40;;;;;;4995528;28;20078;-69
2022/07/18 05:42:34;;;;;;;8.02;2.13;;;16.10;67.20;;;;;;4993994;28;20060;-67
2022/07/18 05:45:02;;;;;;;5.50;1.15;;;16.00;67.80;;;;;;4996702;28;20539;-71
2022/07/18 05:47:30;;;;;;;19.73;2.80;;;15.70;67.60;;;;;;4993357;28;20125;-69
2022/07/18 05:49:58;;;;;;;18.05;1.88;;;15.70;68.70;;;;;;4995134;28;20030;-69
2022/07/18 05:52:25;;;;;;;4.20;0.68;;;15.80;67.50;;;;;;4980351;28;20041;-67
2022/07/18 05:54:53;;;;;;;2.63;0.90;;;15.60;67.80;;;;;;4981728;28;20555;-70
2022/07/18 05:57:20;;;;;;;3.72;1.00;;;15.40;67.20;;;;;;4997560;28;20045;-69
2022/07/18 05:59:48;;;;;;;4.00;0.60;;;14.90;67.90;;;;;;4980363;28;20030;-68
2022/07/18 06:02:15;;;;;;;5.07;0.70;;;14.40;68.60;;;;;;4997489;28;20526;-68
2022/07/18 06:04:42;;;;;;;1.55;0.65;;;14.20;70.10;;;;;;4995323;28;20088;-67
2022/07/18 06:07:09;;;;;;;3.10;0.70;;;14.10;70.50;;;;;;4995304;28;20131;-72
2022/07/18 06:09:37;;;;;;;1.80;0.43;;;13.90;71.20;;;;;;4994256;28;20049;-71
2022/07/18 06:12:04;;;;;;;4.38;1.13;;;13.90;70.90;;;;;;4998891;28;20033;-70
2022/07/18 06:14:32;;;;;;;2.65;0.88;;;13.80;71.30;;;;;;4993906;28;20204;-69
2022/07/18 06:16:59;;;;;;;5.35;0.70;;;13.70;72.50;;;;;;4993300;28;20643;-67
2022/07/18 06:19:27;;;;;;;4.03;1.45;;;13.70;73.00;;;;;;4996689;28;20018;-68
2022/07/18 06:21:54;;;;;;;5.75;1.02;;;13.80;72.10;;;;;;4980792;28;20029;-70
2022/07/18 06:24:21;;;;;;;2.55;0.63;;;13.80;73.30;;;;;;4996704;28;20040;-67
2022/07/18 06:26:49;;;;;;;3.55;0.82;;;13.70;73.50;;;;;;4995337;28;20109;-71
2022/07/18 06:29:17;;;;;;;5.65;1.83;;;13.50;74.40;;;;;;4995028;28;20082;-69
2022/07/18 06:31:44;;;;;;;1.85;0.60;;;13.40;74.80;;;;;;4991631;28;20097;-71
2022/07/18 06:34:11;;;;;;;3.65;0.60;;;13.30;74.40;;;;;;4995781;28;20018;-70
2022/07/18 06:36:38;;;;;;;6.93;0.70;;;13.30;74.60;;;;;;5001557;28;20030;-70
2022/07/18 06:39:10;;;;;;;5.28;1.63;;;13.20;75.10;;;;;;4999237;28;20025;-67
2022/07/18 06:41:39;;;;;;;3.22;0.82;;;13.10;75.70;;;;;;4994674;28;20032;-69
2022/07/18 06:44:06;;;;;;;4.43;0.65;;;13.10;75.80;;;;;;4999469;28;20022;-69
2022/07/18 06:46:34;;;;;;;1.67;0.60;;;13.00;76.10;;;;;;4998218;28;20586;-71
2022/07/18 06:49:01;;;;;;;5.18;0.70;;;12.90;77.30;;;;;;4997987;28;20022;-67
2022/07/18 06:51:28;;;;;;;3.22;0.60;;;12.80;76.90;;;;;;4996671;28;20018;-68
2022/07/18 06:53:55;;;;;;;5.63;1.85;;;12.80;77.00;;;;;;4996412;28;20037;-68
2022/07/18 06:56:22;;;;;;;3.97;1.00;;;12.60;77.20;;;;;;5000622;28;20026;-66
2022/07/18 06:58:50;;;;;;;6.78;1.13;;;12.60;76.50;;;;;;5000384;28;20120;-69
2022/07/18 07:01:19;;;;;;;2.67;0.98;;;12.40;77.20;;;;;;5000619;28;20038;-70
2022/07/18 07:03:47;;;;;;;3.42;0.88;;;12.10;78.20;;;;;;4998336;28;20033;-66
2022/07/18 07:06:15;;;;;;;4.53;0.85;;;12.10;76.70;;;;;;5002162;28;20022;-66
2022/07/18 07:08:43;;;;;;;4.43;0.65;;;12.20;77.90;;;;;;4999283;28;20466;-70
2022/07/18 07:11:10;;;;;;;1.77;0.50;;;12.10;78.60;;;;;;5000772;28;20436;-68
2022/07/18 07:13:38;;;;;;;6.05;1.23;;;11.80;79.50;;;;;;5002134;28;20029;-69
2022/07/18 07:16:05;;;;;;;8.98;1.00;;;11.60;80.10;;;;;;4999857;28;20367;-68
2022/07/18 07:18:32;;;;;;;4.10;0.77;;;11.50;79.60;;;;;;4998830;28;20248;-64
2022/07/18 07:20:59;;;;;;;4.65;1.73;;;11.60;88.00;;;;;;4998342;28;20031;-68
2022/07/18 07:23:27;;;;;;;4.43;1.02;;;11.60;90.20;;;;;;5000980;28;20045;-67
2022/07/18 07:25:54;;;;;;;2.25;0.63;;;11.70;89.00;;;;;;5000022;28;20034;-67
2022/07/18 07:28:21;;;;;;;6.32;0.77;;;11.80;90.60;;;;;;4999226;28;20026;-67
2022/07/18 07:30:49;;;;;;;4.70;0.95;;;11.60;92.60;;;;;;4996393;28;20069;-67
2022/07/18 07:33:16;;;;;;;6.65;1.13;;;11.60;90.20;;;;;;4996726;28;20061;-68
2022/07/18 07:35:44;;;;;;;1.92;0.63;;;11.60;92.00;;;;;;4996648;28;20452;-66
2022/07/18 07:38:17;;;;;;;8.30;1.58;;;11.70;91.50;;;;;;4999637;28;20041;-68
2022/07/18 07:40:46;;;;;;;8.75;0.80;;;11.60;85.50;;;;;;4998374;28;20073;-67
2022/07/18 07:43:15;;;;;;;3.83;1.20;;;11.40;86.10;;;;;;5000168;28;20034;-65
2022/07/18 07:45:46;;;;;;;6.18;1.08;;;11.40;88.60;;;;;;4995600;28;20448;-69
2022/07/18 07:48:13;;;;;;;3.22;1.17;;;11.40;89.70;;;;;;5001374;28;20022;-68
2022/07/18 07:50:40;;;;;;;3.53;0.85;;;11.30;90.00;;;;;;4999602;28;20027;-66
2022/07/18 07:53:07;;;;;;;7.55;3.67;;;11.20;92.20;;;;;;5000172;28;20026;-68
2022/07/18 07:55:34;;;;;;;6.82;3.00;;;11.20;88.50;;;;;;5001186;28;20029;-69
2022/07/18 07:58:04;;;;;;;4.53;1.30;;;11.30;90.40;;;;;;4999481;28;20102;-68
2022/07/18 08:00:32;;;;;;;4.88;0.90;;;11.20;86.90;;;;;;4997480;28;20445;-66
2022/07/18 08:03:04;;;;;;;4.50;2.05;;;11.20;87.90;;;;;;4999079;28;20113;-64
2022/07/18 08:05:34;;;;;;;4.35;2.97;;;11.00;86.50;;;;;;5000342;28;20034;-66
2022/07/18 08:08:01;;;;;;;3.53;1.20;;;10.90;85.60;;;;;;5000197;28;20036;-66
2022/07/18 08:10:31;;;;;;;3.47;1.35;;;10.70;86.20;;;;;;4999308;28;20026;-66
2022/07/18 08:12:58;;;;;;;3.72;2.20;;;10.70;85.70;;;;;;4997774;28;20034;-68
2022/07/18 08:15:26;;;;;;;2.75;1.40;;;10.50;86.00;;;;;;4998351;28;20324;-62
2022/07/18 08:17:53;;;;;;;3.08;2.08;;;10.40;86.70;;;;;;4998208;28;20129;-64
2022/07/18 08:20:21;;;;;;;2.38;0.80;;;10.30;87.20;;;;;;5000083;28;20092;-66
2022/07/18 08:22:59;;;;;;;1.67;0.80;;;10.30;87.30;;;;;;4998195;28;20080;-62
2022/07/18 08:25:28;;;;;;;4.65;0.90;;;10.40;87.00;;;;;;4998536;28;20317;-64
2022/07/18 08:27:56;;;;;;;2.88;1.42;;;10.30;87.60;;;;;;4999012;28;20027;-62
2022/07/18 08:30:24;;;;;;;4.55;1.40;;;10.40;86.80;;;;;;4997320;28;20036;-62
2022/07/18 08:32:51;;;;;;;6.75;1.50;;;10.30;87.50;;;;;;4978844;28;20409;-65
2022/07/18 08:35:19;;;;;;;10.10;2.08;;;10.10;88.80;;;;;;4994382;28;20512;-66
2022/07/18 08:37:46;;;;;;;10.35;2.53;;;10.10;89.10;;;;;;4994890;28;20030;-62
2022/07/18 08:40:14;;;;;;;13.02;2.25;;;9.90;89.90;;;;;;4992864;28;20055;-66
2022/07/18 08:42:41;;;;;;;11.95;2.13;;;9.80;90.20;;;;;;4992392;28;20034;-63
2022/07/18 08:45:09;;;;;;;8.38;2.08;;;9.70;90.30;;;;;;4993443;28;20038;-65
2022/07/18 08:47:36;;;;;;;7.32;2.75;;;9.80;90.30;;;;;;4992488;28;20017;-68
2022/07/18 08:50:04;;;;;;;9.45;1.80;;;9.80;90.30;;;;;;4992690;28;20485;-68
2022/07/18 08:52:32;;;;;;;9.80;2.15;;;9.80;90.30;;;;;;4995940;28;20084;-66
2022/07/18 08:54:59;;;;;;;10.77;1.75;;;9.70;90.50;;;;;;4993598;28;20045;-70
2022/07/18 08:57:29;;;;;;;11.35;2.13;;;9.60;90.70;;;;;;4995278;28;20436;-67
2022/07/18 08:59:56;;;;;;;9.05;1.55;;;9.70;90.70;;;;;;4993031;28;20540;-67
2022/07/18 09:02:29;;;;;;;7.22;1.80;;;9.60;90.60;;;;;;4995355;28;20032;-67
2022/07/18 09:04:56;;;;;;;8.98;1.58;;;9.60;90.80;;;;;;4996181;28;20319;-65
2022/07/18 09:07:30;;;;;;;8.60;1.27;;;9.50;91.10;;;;;;4995852;28;20026;-65
2022/07/18 09:09:59;;;;;;;16.75;6.30;;;9.50;91.10;;;;;;4993889;28;20048;-64
2022/07/18 09:12:31;;;;;;;14.60;3.80;;;9.40;91.40;;;;;;4995128;28;20029;-66
2022/07/18 09:15:13;;;;;;;14.77;3.88;;;9.40;91.50;;;;;;4996181;28;20145;-69
2022/07/18 09:17:40;;;;;;;11.38;2.03;;;9.30;91.60;;;;;;4994732;28;20022;-65
2022/07/18 09:20:16;;;;;;;9.18;1.90;;;9.20;91.80;;;;;;4995351;28;20034;-66
2022/07/18 09:22:49;;;;;;;5.13;1.42;;;9.20;92.00;;;;;;4993775;28;20053;-68
2022/07/18 09:25:21;;;;;;;11.15;1.80;;;9.00;92.50;;;;;;4995232;28;20030;-67
2022/07/18 09:27:50;;;;;;;5.30;2.00;;;9.00;92.80;;;;;;4994542;28;20117;-67
2022/07/18 09:30:34;;;;;;;12.27;2.05;;;8.90;92.70;;;;;;4995274;28;20040;-70
2022/07/18 09:33:04;;;;;;;7.07;2.17;;;8.80;93.10;;;;;;4997965;28;20021;-68
2022/07/18 09:35:53;;;;;;;9.43;2.78;;;8.70;93.60;;;;;;4995322;28;20038;-69
2022/07/18 09:38:29;;;;;;;19.08;4.35;;;8.70;93.40;;;;;;4999041;28;20204;-67
2022/07/18 09:40:59;;;;;;;19.45;3.83;;;8.50;94.00;;;;;;4994191;28;20128;-65
2022/07/18 09:43:29;;;;;;;14.93;4.78;;;8.40;94.50;;;;;;4996590;28;20045;-66
2022/07/18 09:45:57;;;;;;;14.63;5.28;;;8.40;94.50;;;;;;4997419;28;20038;-66
2022/07/18 09:48:26;;;;;;;20.38;5.03;;;8.40;94.60;;;;;;5001171;28;20036;-71
2022/07/18 09:50:58;;;;;;;15.50;4.38;;;8.40;94.90;;;;;;4998639;28;21322;-66
2022/07/18 09:53:34;;;;;;;10.68;3.92;;;8.40;94.60;;;;;;5001360;28;20029;-70
2022/07/18 09:56:04;;;;;;;9.40;3.13;;;8.30;95.10;;;;;;4998317;28;20465;-69
2022/07/18 09:58:35;;;;;;;7.70;3.28;;;8.30;94.90;;;;;;4999310;28;20129;-65
2022/07/18 10:01:04;;;;;;;7.47;2.60;;;8.40;95.10;;;;;;4988423;28;20046;-64
2022/07/18 10:03:32;;;;;;;5.07;2.53;;;8.40;95.20;;;;;;4999882;28;20030;-69
2022/07/18 10:06:01;;;;;;;8.57;2.72;;;8.30;95.30;;;;;;4995704;28;20089;-68
2022/07/18 10:08:31;;;;;;;8.25;2.90;;;8.40;94.90;;;;;;4983666;28;20385;-69
2022/07/18 10:10:59;;;;;;;6.78;2.60;;;8.50;94.60;;;;;;4999738;28;20036;-66
2022/07/18 10:13:29;;;;;;;7.80;2.42;;;8.50;94.60;;;;;;5005204;28;20160;-65
2022/07/18 10:15:57;;;;;;;5.38;2.20;;;8.60;94.40;;;;;;5003108;28;20781;-66
2022/07/18 10:18:30;;;;;;;8.55;2.55;;;8.60;94.20;;;;;;5000535;28;20600;-67
2022/07/18 10:21:10;;;;;;;8.70;3.00;;;8.60;94.30;;;;;;4993722;28;20049;-65
2022/07/18 10:23:42;;;;;;;5.28;2.88;;;8.50;94.30;;;;;;5000674;28;20030;-69
2022/07/18 10:26:13;;;;;;;5.18;2.35;;;8.60;94.20;;;;;;4998989;28;20125;-68
2022/07/18 10:29:02;;;;;;;9.75;2.60;;;8.50;94.30;;;;;;5005133;28;20018;-68
2022/07/18 10:32:02;;;;;;;7.22;2.03;;;8.50;94.20;;;;;;4993810;28;20025;-65
2022/07/18 10:34:36;;;;;;;7.32;1.67;;;8.50;94.30;;;;;;4984516;28;20048;-67
2022/07/18 10:37:06;;;;;;;7.47;2.45;;;8.30;94.50;;;;;;5003252;28;20033;-64
2022/07/18 10:39:47;;;;;;;7.65;2.10;;;8.20;94.70;;;;;;5005844;28;20051;-64
2022/07/18 10:42:15;;;;;;;3.15;1.80;;;8.20;95.00;;;;;;4994190;28;20034;-67
2022/07/18 10:44:42;;;;;;;7.63;2.20;;;8.20;94.50;;;;;;5002793;28;20053;-68
2022/07/18 10:47:17;;;;;;;7.47;2.03;;;8.20;95.00;;;;;;5004388;28;20079;-68
2022/07/18 10:52:27;;;;;;;6.30;2.55;;;8.10;95.50;;;;;;4998140;28;20413;-68
2022/07/18 10:55:05;;;;;;;5.28;1.63;;;8.00;95.70;;;;;;4997595;28;20030;-69
2022/07/18 10:57:49;;;;;;;6.70;1.58;;;8.00;95.60;;;;;;5007187;28;20062;-70
2022/07/18 11:00:38;;;;;;;4.93;1.08;;;7.90;95.60;;;;;;4998618;28;20081;-71
2022/07/18 11:03:07;;;;;;;3.22;1.13;;;7.90;95.80;;;;;;5002206;28;20045;-67
2022/07/18 11:05:53;;;;;;;3.35;1.00;;;7.80;95.90;;;;;;5002391;28;20033;-70
2022/07/18 11:08:24;;;;;;;1.85;0.85;;;7.90;95.70;;;;;;4996364;28;20030;-66
2022/07/18 11:10:53;;;;;;;5.22;0.93;;;7.80;95.90;;;;;;5002639;28;20497;-69
2022/07/18 11:13:32;;;;;;;1.15;0.82;;;7.80;96.00;;;;;;5007416;28;20234;-67
2022/07/18 11:16:15;;;;;;;1.85;0.93;;;7.70;96.40;;;;;;5006671;28;20029;-68
2022/07/18 11:18:43;;;;;;;2.40;0.90;;;7.80;96.30;;;;;;4997584;28;20057;-69
2022/07/18 11:21:20;;;;;;;1.92;0.90;;;7.70;96.60;;;;;;5002287;28;20037;-67
2022/07/18 11:23:49;;;;;;;3.13;0.85;;;7.50;97.40;;;;;;5001858;28;20076;-65
2022/07/18 11:26:18;;;;;;;6.18;0.85;;;7.50;97.60;;;;;;5014197;28;20626;-68
2022/07/18 11:28:48;;;;;;;5.10;1.77;;;7.30;97.90;;;;;;5005305;28;20101;-68
2022/07/18 11:31:15;;;;;;;3.55;0.82;;;7.20;98.70;;;;;;5002338;28;20081;-69
2022/07/18 11:33:47;;;;;;;2.47;0.95;;;7.10;99.30;;;;;;5011289;28;20546;-66
2022/07/18 11:36:16;;;;;;;2.90;0.88;;;7.00;99.80;;;;;;4996353;28;20029;-66
2022/07/18 11:38:56;;;;;;;3.47;0.85;;;7.10;99.40;;;;;;5002457;28;20053;-67
2022/07/18 11:41:24;;;;;;;4.53;1.45;;;7.00;99.90;;;;;;5006898;28;20042;-63
2022/07/18 11:43:53;;;;;;;0.90;0.57;;;6.90;99.90;;;;;;4999398;28;20096;-71
2022/07/18 11:46:25;;;;;;;4.75;1.20;;;6.70;99.90;;;;;;5000176;28;20101;-62
2022/07/18 11:48:59;;;;;;;3.55;1.02;;;6.70;99.90;;;;;;4992457;28;20376;-63
2022/07/18 11:51:44;;;;;;;3.53;1.00;;;6.70;99.90;;;;;;4997792;28;20029;-63
2022/07/18 11:54:22;;;;;;;4.07;0.90;;;6.60;99.90;;;;;;5003671;28;20037;-65
2022/07/18 11:56:51;;;;;;;5.68;1.70;;;6.50;99.90;;;;;;5003290;28;20025;-69
2022/07/18 11:59:18;;;;;;;7.45;2.78;;;6.40;99.90;;;;;;5008592;28;20524;-64
2022/07/18 12:01:52;;;;;;;6.72;2.60;;;6.30;99.90;;;;;;4999236;28;20057;-65
2022/07/18 12:04:22;;;;;;;7.72;2.65;;;6.20;99.90;;;;;;4999425;28;20042;-69
2022/07/18 12:07:26;;;;;;;9.43;3.22;;;6.10;99.90;;;;;;5009096;28;20102;-69
2022/07/18 12:09:54;;;;;;;9.05;2.55;;;6.00;99.90;;;;;;5009004;28;20115;-68
2022/07/18 12:12:23;;;;;;;5.68;2.90;;;6.00;99.90;;;;;;4995000;28;20523;-69
2022/07/18 12:15:02;;;;;;;7.78;2.75;;;6.10;99.90;;;;;;5001380;28;20036;-63
2022/07/18 12:17:30;;;;;;;4.82;2.30;;;6.20;99.90;;;;;;4996614;28;20033;-69
2022/07/18 12:20:18;;;;;;;6.15;2.40;;;6.10;99.90;;;;;;5001998;28;20084;-63
2022/07/18 12:23:07;;;;;;;2.63;1.50;;;6.00;99.90;;;;;;4984412;28;20362;-63
2022/07/18 12:25:42;;;;;;;2.53;1.15;;;5.90;99.90;;;;;;5008467;28;20120;-65
2022/07/18 12:28:18;;;;;;;5.30;1.40;;;5.80;99.90;;;;;;5009609;28;20060;-65
2022/07/18 12:30:46;;;;;;;2.70;1.23;;;5.70;99.90;;;;;;5003539;28;20369;-64
2022/07/18 12:33:14;;;;;;;3.83;2.22;;;5.70;99.90;;;;;;5003437;28;20555;-65
2022/07/18 12:35:42;;;;;;;1.98;0.95;;;5.70;99.90;;;;;;5003401;28;20014;-65
2022/07/18 12:38:10;;;;;;;3.38;1.42;;;5.60;99.90;;;;;;5004048;28;20467;-63
2022/07/18 12:40:59;;;;;;;3.10;1.27;;;5.70;99.90;;;;;;5002385;28;20289;-69
2022/07/18 12:43:29;;;;;;;4.85;2.13;;;5.80;99.90;;;;;;4998933;28;20052;-70
2022/07/18 12:46:03;;;;;;;7.43;3.75;;;5.70;99.90;;;;;;5006866;28;20025;-63
2022/07/18 12:48:32;;;;;;;5.18;1.73;;;5.70;99.90;;;;;;4998581;28;20021;-71
2022/07/18 12:51:03;;;;;;;2.63;1.15;;;5.80;99.90;;;;;;4998670;28;20116;-70
2022/07/18 12:53:33;;;;;;;3.25;1.45;;;5.90;99.90;;;;;;4999735;28;20115;-69
2022/07/18 12:56:00;;;;;;;3.15;1.33;;;6.10;99.90;;;;;;5001719;28;20421;-71
2022/07/18 12:58:27;;;;;;;2.65;1.63;;;6.20;99.90;;;;;;5007283;28;20116;-69
2022/07/18 13:00:57;;;;;;;3.17;1.35;;;6.30;99.90;;;;;;5001252;28;20026;-69
2022/07/18 13:03:25;;;;;;;7.93;1.65;;;6.40;99.90;;;;;;4998551;28;20026;-64
2022/07/18 13:05:52;;;;;;;3.05;1.20;;;6.50;99.90;;;;;;4989071;28;20033;-70
2022/07/18 13:08:19;;;;;;;4.18;1.40;;;6.50;99.90;;;;;;5005533;28;20446;-68